Pineville, MO

6:31 PM CST on December 22, 2014 (GMT -0600)
NW Arkansas Airport | Change Station
CLOSE
Current Station
Airport
Location: NW Arkansas Airport,
Elevation: 1286 ft
Nearby Weather Stations

Elev 1286 ft 36.28 °N, 94.31 °W | Updated 17 minutes ago

Overcast
Overcast
49 °F
Feels Like 49 °F
N
12
Wind Variable Wind from West

Today
High -- | Low -- °F
--% Chance of Precip.
Yesterday
High -- | Low -- °F
Precip. -- in
7:26 AM 5:05 PM
New Moon, 1% visible
Pressure 29.60 in
Visibility 8.0 miles
Clouds Scattered Clouds 1200 ft
Mostly Cloudy 2000 ft
Overcast 4600 ft
Dew Point 47 °F
Humidity 93%
Rainfall 0.04 in
Snow Depth Not available.
UV 0 out of 12
Pollen 5.20 out of 12
Air Quality Not available.
Flu Activity Not available.
SPECI KXNA 230014Z 26010KT 8SM SCT012 BKN020 OVC046 09/08 A2960 RMK AO2 RAE03 P0000 T00940083

More Conditions Fewer Conditions

Pressure 29.60 in
Visibility 8.0 miles
Clouds Scattered Clouds 1200 ft
Mostly Cloudy 2000 ft
Overcast 4600 ft
Dew Point 47 °F
Humidity 93%
Rainfall 0.04 in
Snow Depth Not available.
UV 0 out of 12
Pollen 5.20 out of 12
Air Quality Not available.
Flu Activity Not available.
SPECI KXNA 230014Z 26010KT 8SM SCT012 BKN020 OVC046 09/08 A2960 RMK AO2 RAE03 P0000 T00940083

More Conditions Fewer Conditions

10-Day Weather Forecast

Almanac

Astronomy

Dec. 22, 2014 Rise Set
Actual Time
Civil Twilight
Nautical Twilight
Astronomical Twilight
Moon
Length of Visible Light
Length of Day
Tomorrow will be .
, % of the Moon is Illuminated

Today's Extremes

State Highs State Lows

Community

WunderPhotos

Upload Photos

1,779,738 photos uploaded!

WunderBlogs® & News

Nearby

Air Quality

  Air Quality AQ Index Pollutant
Not available.

Snow Depth

Station Depth Elevation

Earthquake Activity

City Distance Mag. Time & Date
Minimum magnitude displayed is 2.5.

Coastal Water Temperatures

Place Temperature

Nearby Weather Stations